createdAt,value
2019-01-21T00:00:34.151Z,-8.20
2019-01-21T00:02:09.279Z,-8.30
2019-01-21T00:03:44.074Z,-8.30
2019-01-21T00:05:19.128Z,-8.30
2019-01-21T00:06:53.990Z,-8.30
2019-01-21T00:08:29.223Z,-8.30
2019-01-21T00:10:04.698Z,-8.20
2019-01-21T00:11:39.584Z,-8.20
2019-01-21T00:13:15.018Z,-8.20
2019-01-21T00:14:50.148Z,-8.20
2019-01-21T00:16:24.960Z,-8.20
2019-01-21T00:18:00.247Z,-8.30
2019-01-21T00:19:35.133Z,-8.30
2019-01-21T00:21:09.933Z,-8.30
2019-01-21T00:22:45.090Z,-8.30
2019-01-21T00:24:21.559Z,-8.40
2019-01-21T00:25:56.682Z,-8.40
2019-01-21T00:27:31.765Z,-8.30
2019-01-21T00:29:06.590Z,-8.30
2019-01-21T00:30:41.947Z,-8.30
2019-01-21T00:32:16.733Z,-8.30
2019-01-21T00:33:51.811Z,-8.30
2019-01-21T00:35:26.696Z,-8.30
2019-01-21T00:37:03.443Z,-8.30
2019-01-21T00:38:38.617Z,-8.40
2019-01-21T00:40:14.199Z,-8.40
2019-01-21T00:41:49.015Z,-8.40
2019-01-21T00:43:24.103Z,-8.40
2019-01-21T00:44:58.965Z,-8.40
2019-01-21T00:46:34.089Z,-8.40
2019-01-21T00:48:09.320Z,-8.40
2019-01-21T00:49:44.471Z,-8.40
2019-01-21T00:51:19.584Z,-8.50
2019-01-21T00:52:54.384Z,-8.50
2019-01-21T00:54:29.164Z,-8.50
2019-01-21T00:56:04.062Z,-8.50
2019-01-21T00:57:39.031Z,-8.50
2019-01-21T00:59:13.846Z,-8.50
2019-01-21T01:00:49.035Z,-8.50
2019-01-21T01:02:23.935Z,-8.50
2019-01-21T01:03:59.292Z,-8.50
2019-01-21T01:05:34.178Z,-8.60
2019-01-21T01:07:09.655Z,-8.60
2019-01-21T01:08:44.445Z,-8.60
2019-01-21T01:10:19.486Z,-8.60
2019-01-21T01:11:54.284Z,-8.60
2019-01-21T01:13:29.347Z,-8.50
2019-01-21T01:15:05.011Z,-8.50
2019-01-21T01:16:40.128Z,-8.50
2019-01-21T01:18:14.925Z,-8.50
2019-01-21T01:19:49.781Z,-8.60
2019-01-21T01:21:24.912Z,-8.60
2019-01-21T01:22:59.967Z,-8.70
2019-01-21T01:24:34.779Z,-8.80
2019-01-21T01:26:09.889Z,-8.70
2019-01-21T01:27:44.865Z,-8.70
2019-01-21T01:29:19.669Z,-8.70
2019-01-21T01:30:54.715Z,-8.70
2019-01-21T01:32:29.522Z,-8.70
2019-01-21T01:34:04.827Z,-8.60
2019-01-21T01:35:39.951Z,-8.60
2019-01-21T01:37:14.771Z,-8.60
2019-01-21T01:38:49.584Z,-8.70
2019-01-21T01:40:24.468Z,-8.70
2019-01-21T01:41:59.285Z,-8.70
2019-01-21T01:43:34.710Z,-8.80
2019-01-21T01:45:12.066Z,-8.80
2019-01-21T01:46:47.403Z,-8.80
2019-01-21T01:48:22.206Z,-8.80
2019-01-21T01:49:57.011Z,-8.70
2019-01-21T01:51:32.233Z,-8.70
2019-01-21T01:53:07.193Z,-8.70
2019-01-21T01:54:42.484Z,-8.70
2019-01-21T01:56:17.675Z,-8.80
2019-01-21T01:57:55.438Z,-8.80
2019-01-21T01:59:30.235Z,-8.80
2019-01-21T02:01:05.478Z,-8.80
2019-01-21T02:02:40.580Z,-8.90
2019-01-21T02:04:15.707Z,-8.90
2019-01-21T02:05:50.635Z,-8.90
2019-01-21T02:07:25.434Z,-8.90
2019-01-21T02:09:00.337Z,-8.90
2019-01-21T02:10:35.692Z,-8.90
2019-01-21T02:12:10.920Z,-8.90
2019-01-21T02:13:46.095Z,-8.90
2019-01-21T02:15:21.146Z,-9.00
2019-01-21T02:16:56.208Z,-9.00
2019-01-21T02:18:31.007Z,-9.00
2019-01-21T02:20:09.369Z,-9.00
2019-01-21T02:21:44.998Z,-9.00
2019-01-21T02:23:22.172Z,-9.00
2019-01-21T02:25:01.042Z,-9.00
2019-01-21T02:26:51.214Z,-9.10
2019-01-21T02:28:56.314Z,-9.00
2019-01-21T02:31:17.141Z,-9.00
2019-01-21T02:33:41.720Z,-9.10
2019-01-21T02:35:47.437Z,-9.10
2019-01-21T02:37:46.871Z,-9.10
2019-01-21T02:40:11.463Z,-9.20
2019-01-21T02:42:34.131Z,-9.10
2019-01-21T02:44:43.361Z,-9.10
2019-01-21T02:46:44.388Z,-9.10
2019-01-21T02:49:10.958Z,-9.20
2019-01-21T02:51:24.220Z,-9.20
2019-01-21T02:53:34.649Z,-9.20
2019-01-21T02:55:32.323Z,-9.20
2019-01-21T02:58:10.850Z,-9.30
2019-01-21T03:00:36.011Z,-9.30
2019-01-21T03:02:48.436Z,-9.30
2019-01-21T03:05:19.071Z,-9.30
2019-01-21T03:07:42.958Z,-9.40
2019-01-21T03:09:55.150Z,-9.40
2019-01-21T03:12:00.942Z,-9.40
2019-01-21T03:14:10.789Z,-9.40
2019-01-21T03:16:42.076Z,-9.40
2019-01-21T03:19:01.128Z,-9.40
2019-01-21T03:21:29.271Z,-9.50
2019-01-21T03:23:46.681Z,-9.50
2019-01-21T03:26:04.776Z,-9.40
2019-01-21T03:28:54.894Z,-9.40
2019-01-21T03:31:12.279Z,-9.40
2019-01-21T03:33:37.128Z,-9.50
2019-01-21T03:36:05.055Z,-9.50
2019-01-21T03:38:34.901Z,-9.50
2019-01-21T03:40:29.678Z,-9.40
2019-01-21T03:42:25.124Z,-9.50
2019-01-21T03:45:12.199Z,-9.50
2019-01-21T03:47:32.228Z,-9.50
2019-01-21T03:49:30.506Z,-9.50
2019-01-21T03:52:17.379Z,-9.50
2019-01-21T03:54:06.729Z,-9.50
2019-01-21T03:55:42.115Z,-9.50
2019-01-21T03:58:11.507Z,-9.60
2019-01-21T04:00:43.553Z,-9.50
2019-01-21T04:02:48.186Z,-9.50
2019-01-21T04:05:12.666Z,-9.50
2019-01-21T04:07:08.855Z,-9.50
2019-01-21T04:09:39.995Z,-9.50
2019-01-21T04:11:49.485Z,-9.50
2019-01-21T04:14:23.361Z,-9.40
2019-01-21T04:17:06.061Z,-9.50
2019-01-21T04:19:31.053Z,-9.50
2019-01-21T04:22:16.484Z,-9.50
2019-01-21T04:24:53.963Z,-9.50
2019-01-21T04:27:22.530Z,-9.50
2019-01-21T04:29:45.579Z,-9.60
2019-01-21T04:32:05.962Z,-9.60
2019-01-21T04:34:41.345Z,-9.60
2019-01-21T04:36:59.456Z,-9.50
2019-01-21T04:39:07.534Z,-9.60
2019-01-21T04:41:28.047Z,-9.60
2019-01-21T04:44:17.192Z,-9.60
2019-01-21T04:46:56.174Z,-9.60
2019-01-21T04:49:14.566Z,-9.60
2019-01-21T04:51:47.858Z,-9.60
2019-01-21T04:53:59.801Z,-9.60
2019-01-21T04:56:18.979Z,-9.60
2019-01-21T04:58:48.480Z,-9.60
2019-01-21T05:01:05.155Z,-9.60
2019-01-21T05:03:41.841Z,-9.60
2019-01-21T05:06:04.665Z,-9.70
2019-01-21T05:08:37.551Z,-9.70
2019-01-21T05:10:45.529Z,-9.80
2019-01-21T05:13:12.623Z,-9.80
2019-01-21T05:15:58.870Z,-9.80
2019-01-21T05:18:48.449Z,-9.80
2019-01-21T05:21:11.873Z,-9.80
2019-01-21T05:23:34.354Z,-9.80
2019-01-21T05:25:54.761Z,-9.80
2019-01-21T05:28:47.398Z,-9.80
2019-01-21T05:30:59.315Z,-9.90
2019-01-21T05:33:31.342Z,-9.90
2019-01-21T05:35:59.006Z,-9.90
2019-01-21T05:38:36.489Z,-9.90
2019-01-21T05:41:18.003Z,-9.90
2019-01-21T05:43:54.116Z,-9.90
2019-01-21T05:46:03.214Z,-9.90
2019-01-21T05:48:48.896Z,-9.90
2019-01-21T05:51:18.640Z,-9.90
2019-01-21T05:53:38.030Z,-9.90
2019-01-21T05:56:21.928Z,-9.90
2019-01-21T05:58:36.433Z,-9.90
2019-01-21T06:00:49.390Z,-9.80
2019-01-21T06:03:41.184Z,-9.80
2019-01-21T06:06:03.897Z,-9.80
2019-01-21T06:09:00.319Z,-9.90
2019-01-21T06:11:11.668Z,-9.90
2019-01-21T06:13:32.757Z,-9.90
2019-01-21T06:16:00.430Z,-9.90
2019-01-21T06:18:34.630Z,-9.80
2019-01-21T06:20:55.044Z,-9.80
2019-01-21T06:23:46.126Z,-9.90
2019-01-21T06:26:08.670Z,-9.90
2019-01-21T06:28:28.452Z,-9.90
2019-01-21T06:30:37.886Z,-9.90
2019-01-21T06:33:02.373Z,-9.90
2019-01-21T06:35:40.511Z,-9.90
2019-01-21T06:37:58.076Z,-9.90
2019-01-21T06:40:35.732Z,-9.90
2019-01-21T06:43:21.514Z,-9.90
2019-01-21T06:45:28.365Z,-9.90
2019-01-21T06:47:43.359Z,-10.00
2019-01-21T06:49:40.351Z,-10.00
2019-01-21T06:51:54.365Z,-10.00
2019-01-21T06:54:43.258Z,-10.00
2019-01-21T06:57:07.905Z,-10.00
2019-01-21T06:59:20.238Z,-10.00
2019-01-21T07:01:45.585Z,-10.00
2019-01-21T07:04:12.140Z,-10.00
2019-01-21T07:06:42.150Z,-10.00
2019-01-21T07:09:18.811Z,-9.90
2019-01-21T07:11:47.672Z,-9.90
2019-01-21T07:13:53.670Z,-9.90
2019-01-21T07:15:57.781Z,-9.90
2019-01-21T07:18:17.198Z,-9.80
2019-01-21T07:20:32.518Z,-9.70
2019-01-21T07:23:35.216Z,-9.60
2019-01-21T07:26:09.693Z,-9.50
2019-01-21T07:28:45.258Z,-9.50
2019-01-21T07:31:22.547Z,-9.40
2019-01-21T07:33:55.747Z,-9.40
2019-01-21T07:36:12.978Z,-9.30
2019-01-21T07:38:15.958Z,-9.20
2019-01-21T07:40:50.596Z,-9.20
2019-01-21T07:43:15.759Z,-9.10
2019-01-21T07:45:34.081Z,-9.00
2019-01-21T07:47:37.430Z,-8.80
2019-01-21T07:50:00.097Z,-8.70
2019-01-21T07:52:31.070Z,-8.60
2019-01-21T07:54:43.206Z,-8.40
2019-01-21T07:57:08.555Z,-8.20
2019-01-21T07:59:24.361Z,-7.90
2019-01-21T08:01:46.721Z,-7.30
2019-01-21T08:04:36.678Z,-6.90
2019-01-21T08:07:09.364Z,-6.60
2019-01-21T08:09:29.390Z,-6.60
2019-01-21T08:11:37.451Z,-6.50
2019-01-21T08:13:46.679Z,-6.50
2019-01-21T08:15:44.761Z,-6.50
2019-01-21T08:18:14.280Z,-6.40
2019-01-21T08:20:37.938Z,-6.30
2019-01-21T08:23:08.273Z,-6.10
2019-01-21T08:25:34.362Z,-6.00
2019-01-21T08:28:03.469Z,-5.80
2019-01-21T08:30:30.458Z,-5.60
2019-01-21T08:32:38.999Z,-5.40
2019-01-21T08:35:10.774Z,-5.20
2019-01-21T08:37:19.094Z,-5.10
2019-01-21T08:39:43.386Z,-5.00
2019-01-21T08:41:49.187Z,-4.90
2019-01-21T08:43:56.118Z,-4.80
2019-01-21T08:46:26.527Z,-4.70
2019-01-21T08:49:03.744Z,-4.60
2019-01-21T08:53:37.839Z,-4.90
2019-01-21T08:56:01.028Z,-4.90
2019-01-21T08:58:27.783Z,-5.00
2019-01-21T09:00:38.829Z,-5.10
2019-01-21T09:03:02.781Z,-5.00
2019-01-21T09:05:14.162Z,-5.00
2019-01-21T09:07:20.017Z,-5.10
2019-01-21T09:09:48.593Z,-5.30
2019-01-21T09:11:57.615Z,-5.30
2019-01-21T09:14:02.456Z,-5.30
2019-01-21T09:16:08.303Z,-5.10
2019-01-21T09:18:24.624Z,-4.80
2019-01-21T09:20:59.125Z,-4.70
2019-01-21T09:22:47.479Z,-4.50
2019-01-21T09:25:20.374Z,-4.30
2019-01-21T09:27:41.875Z,-4.30
2019-01-21T09:30:14.593Z,-4.20
2019-01-21T09:32:41.525Z,-4.00
2019-01-21T09:35:17.263Z,-3.80
2019-01-21T09:38:19.646Z,-3.70
2019-01-21T09:40:51.661Z,-3.60
2019-01-21T09:43:24.359Z,-3.50
2019-01-21T09:45:48.662Z,-3.40
2019-01-21T09:47:21.976Z,-3.40
2019-01-21T09:48:55.211Z,-3.30
2019-01-21T09:50:30.648Z,-3.10
2019-01-21T09:52:14.181Z,-3.40
2019-01-21T09:53:54.482Z,-3.40
2019-01-21T09:55:30.275Z,-3.40
2019-01-21T09:57:08.950Z,-3.40
2019-01-21T09:58:45.318Z,-3.50
2019-01-21T10:00:20.715Z,-3.50
2019-01-21T10:01:58.836Z,-3.50
2019-01-21T10:03:34.903Z,-3.40
2019-01-21T10:05:13.971Z,-3.50
2019-01-21T10:07:20.877Z,-3.40
2019-01-21T10:09:48.190Z,-2.90
2019-01-21T10:12:08.102Z,-2.50
2019-01-21T10:14:29.593Z,-2.40
2019-01-21T10:16:55.831Z,-2.50
2019-01-21T10:19:36.362Z,-2.90
2019-01-21T10:22:05.076Z,-2.40
2019-01-21T10:24:23.033Z,-1.80
2019-01-21T10:26:40.521Z,-1.40
2019-01-21T10:29:21.614Z,-1.00
2019-01-21T10:31:59.405Z,-0.60
2019-01-21T10:33:59.703Z,0.00
2019-01-21T10:36:36.182Z,0.20
2019-01-21T10:39:06.459Z,0.20
2019-01-21T10:41:05.621Z,-0.70
2019-01-21T10:43:05.350Z,-0.50
2019-01-21T10:45:28.371Z,0.30
2019-01-21T10:47:36.683Z,0.70
2019-01-21T10:50:29.988Z,0.60
2019-01-21T10:53:13.226Z,0.50
2019-01-21T10:55:19.871Z,0.40
2019-01-21T10:57:33.360Z,1.30
2019-01-21T10:59:25.284Z,2.00
2019-01-21T11:02:20.971Z,2.90
2019-01-21T11:04:55.242Z,3.60
2019-01-21T11:07:21.544Z,4.20
2019-01-21T11:09:45.599Z,3.80
2019-01-21T11:12:06.533Z,3.00
2019-01-21T11:14:27.950Z,3.30
2019-01-21T11:16:29.485Z,3.90
2019-01-21T11:18:30.946Z,3.50
2019-01-21T11:20:52.180Z,4.20
2019-01-21T11:22:55.276Z,4.40
2019-01-21T11:24:59.967Z,4.60
2019-01-21T11:27:21.084Z,5.20
2019-01-21T11:29:59.593Z,5.90
2019-01-21T11:32:09.392Z,6.40
2019-01-21T11:34:30.134Z,6.90
2019-01-21T11:36:21.956Z,7.30
2019-01-21T11:38:26.482Z,7.90
2019-01-21T11:40:50.150Z,7.90
2019-01-21T11:42:43.107Z,7.90
2019-01-21T11:44:56.620Z,8.10
2019-01-21T11:47:12.301Z,8.50
2019-01-21T11:49:40.890Z,8.60
2019-01-21T11:52:36.514Z,8.70
2019-01-21T11:55:03.547Z,8.60
2019-01-21T11:57:23.743Z,8.90
2019-01-21T11:59:43.164Z,9.10
2019-01-21T12:02:14.115Z,9.30
2019-01-21T12:04:40.992Z,9.60
2019-01-21T12:06:44.806Z,10.00
2019-01-21T12:08:38.213Z,10.10
2019-01-21T12:10:51.789Z,10.20
2019-01-21T12:13:04.199Z,10.00
2019-01-21T12:15:14.107Z,9.90
2019-01-21T12:17:50.512Z,9.80
2019-01-21T12:20:17.012Z,9.80
2019-01-21T12:22:32.111Z,9.50
2019-01-21T12:24:53.951Z,9.30
2019-01-21T12:27:36.990Z,9.50
2019-01-21T12:30:11.293Z,9.40
2019-01-21T12:32:32.625Z,9.50
2019-01-21T12:34:57.112Z,9.50
2019-01-21T12:37:10.129Z,9.70
2019-01-21T12:39:11.946Z,9.70
2019-01-21T12:41:25.132Z,9.10
2019-01-21T12:43:47.692Z,8.60
2019-01-21T12:46:29.704Z,8.50
2019-01-21T12:48:19.786Z,8.60
2019-01-21T12:50:47.252Z,8.50
2019-01-21T12:52:36.029Z,8.70
2019-01-21T12:55:04.159Z,8.90
2019-01-21T12:57:50.832Z,8.90
2019-01-21T13:00:35.153Z,8.50
2019-01-21T13:03:05.762Z,8.50
2019-01-21T13:05:18.060Z,8.70
2019-01-21T13:07:48.614Z,8.80
2019-01-21T13:10:12.660Z,8.60
2019-01-21T13:12:12.920Z,8.30
2019-01-21T13:14:17.261Z,7.80
2019-01-21T13:17:18.985Z,7.60
2019-01-21T13:19:58.398Z,7.50
2019-01-21T13:21:57.857Z,7.10
2019-01-21T13:24:03.247Z,7.00
2019-01-21T13:26:26.172Z,7.00
2019-01-21T13:28:40.976Z,6.90
2019-01-21T13:31:01.120Z,6.70
2019-01-21T13:33:25.557Z,6.60
2019-01-21T13:35:46.438Z,6.60
2019-01-21T13:38:08.458Z,6.70
2019-01-21T13:40:35.650Z,6.70
2019-01-21T13:42:40.776Z,6.90
2019-01-21T13:44:47.561Z,6.80
2019-01-21T13:47:33.113Z,6.80
2019-01-21T13:49:27.124Z,6.60
2019-01-21T13:51:41.348Z,6.40
2019-01-21T13:54:23.837Z,6.30
2019-01-21T13:56:31.545Z,6.30
2019-01-21T13:58:39.035Z,6.10
2019-01-21T14:00:46.035Z,6.00
2019-01-21T14:02:36.285Z,6.10
2019-01-21T14:05:12.225Z,6.10
2019-01-21T14:07:17.260Z,6.10
2019-01-21T14:09:40.311Z,6.00
2019-01-21T14:12:10.531Z,6.00
2019-01-21T14:14:14.538Z,6.00
2019-01-21T14:16:34.898Z,5.90
2019-01-21T14:18:48.966Z,5.90
2019-01-21T14:21:11.826Z,5.80
2019-01-21T14:23:15.878Z,5.40
2019-01-21T14:25:36.558Z,4.90
2019-01-21T14:27:57.019Z,4.30
2019-01-21T14:29:50.273Z,3.70
2019-01-21T14:32:41.282Z,3.00
2019-01-21T14:35:00.455Z,2.60
2019-01-21T14:37:29.634Z,1.90
2019-01-21T14:39:53.225Z,1.40
2019-01-21T14:42:15.757Z,1.00
2019-01-21T14:45:23.993Z,0.70
2019-01-21T14:47:47.432Z,0.50
2019-01-21T14:49:33.345Z,0.20
2019-01-21T14:52:18.490Z,0.00
2019-01-21T14:54:23.598Z,-0.10
2019-01-21T14:56:29.584Z,-0.40
2019-01-21T14:59:10.586Z,-0.60
2019-01-21T15:01:23.820Z,-0.80
2019-01-21T15:03:32.270Z,-1.00
2019-01-21T15:06:08.574Z,-1.10
2019-01-21T15:08:04.829Z,-1.30
2019-01-21T15:10:36.543Z,-1.40
2019-01-21T15:13:04.360Z,-1.60
2019-01-21T15:15:16.033Z,-1.70
2019-01-21T15:18:06.020Z,-1.90
2019-01-21T15:20:57.833Z,-2.00
2019-01-21T15:23:11.402Z,-2.10
2019-01-21T15:25:32.802Z,-2.30
2019-01-21T15:27:43.792Z,-2.50
2019-01-21T15:30:05.737Z,-2.60
2019-01-21T15:32:27.339Z,-2.70
2019-01-21T15:34:36.691Z,-2.90
2019-01-21T15:36:23.506Z,-3.00
2019-01-21T15:38:44.510Z,-3.10
2019-01-21T15:41:01.302Z,-3.20
2019-01-21T15:43:08.426Z,-3.20
2019-01-21T15:45:40.741Z,-3.40
2019-01-21T15:47:45.262Z,-3.50
2019-01-21T15:50:09.823Z,-3.70
2019-01-21T15:52:41.344Z,-3.80
2019-01-21T15:54:54.348Z,-3.90
2019-01-21T15:57:32.767Z,-4.00
2019-01-21T15:59:48.020Z,-4.10
2019-01-21T16:02:35.248Z,-4.30
2019-01-21T16:04:57.862Z,-4.40
2019-01-21T16:07:23.823Z,-4.50
2019-01-21T16:09:45.451Z,-4.60
2019-01-21T16:11:57.890Z,-4.70
2019-01-21T16:14:11.379Z,-4.80
2019-01-21T16:16:19.375Z,-4.90
2019-01-21T16:18:19.590Z,-5.10
2019-01-21T16:20:28.106Z,-5.10
2019-01-21T16:22:42.017Z,-5.10
2019-01-21T16:25:11.446Z,-5.00
2019-01-21T16:27:02.454Z,-5.10
2019-01-21T16:29:01.445Z,-5.20
2019-01-21T16:30:49.781Z,-5.20
2019-01-21T16:32:47.700Z,-5.30
2019-01-21T16:35:08.968Z,-5.30
2019-01-21T16:39:00.078Z,-5.30
2019-01-21T16:41:47.349Z,-5.50
2019-01-21T16:43:22.531Z,-5.50
2019-01-21T16:44:57.964Z,-5.70
2019-01-21T16:46:32.843Z,-5.70
2019-01-21T16:48:07.720Z,-5.70
2019-01-21T16:49:42.946Z,-5.60
2019-01-21T16:51:20.451Z,-5.60
2019-01-21T16:52:54.971Z,-5.60
2019-01-21T16:54:30.085Z,-5.70
2019-01-21T16:56:05.150Z,-5.70
2019-01-21T16:57:40.090Z,-5.80
2019-01-21T16:59:14.972Z,-5.80
2019-01-21T17:00:49.780Z,-5.90
2019-01-21T17:02:24.916Z,-6.00
2019-01-21T17:04:00.045Z,-6.10
2019-01-21T17:05:35.480Z,-6.00
2019-01-21T17:07:10.471Z,-6.00
2019-01-21T17:08:45.532Z,-6.00
2019-01-21T17:10:20.326Z,-6.00
2019-01-21T17:11:55.743Z,-6.00
2019-01-21T17:13:30.608Z,-6.00
2019-01-21T17:15:07.812Z,-6.10
2019-01-21T17:16:42.692Z,-6.10
2019-01-21T17:18:17.836Z,-6.10
2019-01-21T17:19:52.989Z,-6.10
2019-01-21T17:21:28.427Z,-6.10
2019-01-21T17:23:03.659Z,-6.10
2019-01-21T17:24:38.728Z,-6.10
2019-01-21T17:26:13.658Z,-6.10
2019-01-21T17:27:48.740Z,-6.20
2019-01-21T17:29:23.791Z,-6.20
2019-01-21T17:30:58.938Z,-6.10
2019-01-21T17:32:34.133Z,-6.20
2019-01-21T17:34:09.360Z,-6.10
2019-01-21T17:35:44.494Z,-6.20
2019-01-21T17:37:19.621Z,-6.20
2019-01-21T17:38:54.497Z,-6.20
2019-01-21T17:40:29.683Z,-6.20
2019-01-21T17:42:04.604Z,-6.20
2019-01-21T17:43:39.391Z,-6.20
2019-01-21T17:45:18.683Z,-6.20
2019-01-21T17:46:53.988Z,-6.20
2019-01-21T17:48:28.918Z,-6.20
2019-01-21T17:50:05.001Z,-6.20
2019-01-21T17:51:40.139Z,-6.30
2019-01-21T17:53:14.947Z,-6.40
2019-01-21T17:54:50.154Z,-6.40
2019-01-21T17:56:25.281Z,-6.40
2019-01-21T17:58:00.411Z,-6.40
2019-01-21T17:59:35.244Z,-6.50
2019-01-21T18:01:11.304Z,-6.50
2019-01-21T18:02:46.095Z,-6.60
2019-01-21T18:04:20.911Z,-6.60
2019-01-21T18:05:57.035Z,-6.70
2019-01-21T18:07:31.968Z,-6.80
2019-01-21T18:09:10.129Z,-6.80
2019-01-21T18:10:45.232Z,-6.80
2019-01-21T18:12:20.043Z,-6.90
2019-01-21T18:13:55.196Z,-6.90
2019-01-21T18:15:30.328Z,-6.90
2019-01-21T18:17:05.562Z,-6.90
2019-01-21T18:18:40.346Z,-6.90
2019-01-21T18:20:22.152Z,-7.00
2019-01-21T18:21:57.301Z,-6.80
2019-01-21T18:23:32.442Z,-6.70
2019-01-21T18:25:09.104Z,-6.60
2019-01-21T18:26:44.288Z,-6.50
2019-01-21T18:28:19.462Z,-6.50
2019-01-21T18:29:54.262Z,-6.50
2019-01-21T18:31:29.442Z,-6.40
2019-01-21T18:33:04.757Z,-6.40
2019-01-21T18:34:39.571Z,-6.40
2019-01-21T18:36:15.520Z,-6.40
2019-01-21T18:37:50.856Z,-6.50
2019-01-21T18:39:25.988Z,-6.60
2019-01-21T18:41:00.772Z,-6.50
2019-01-21T18:42:35.629Z,-6.50
2019-01-21T18:44:10.593Z,-6.60
2019-01-21T18:45:46.511Z,-6.60
2019-01-21T18:47:21.656Z,-6.60
2019-01-21T18:48:56.537Z,-6.70
2019-01-21T18:50:31.703Z,-6.70
2019-01-21T18:52:07.049Z,-6.80
2019-01-21T18:53:41.832Z,-6.90
2019-01-21T18:55:16.836Z,-6.90
2019-01-21T18:56:51.625Z,-7.00
2019-01-21T18:58:26.434Z,-7.00
2019-01-21T19:00:01.299Z,-6.90
2019-01-21T19:01:36.483Z,-6.90
2019-01-21T19:03:11.642Z,-6.90
2019-01-21T19:04:46.699Z,-6.90
2019-01-21T19:06:21.882Z,-6.90
2019-01-21T19:07:56.662Z,-6.90
2019-01-21T19:09:31.693Z,-6.90
2019-01-21T19:11:06.860Z,-6.90
2019-01-21T19:12:41.964Z,-6.90
2019-01-21T19:14:17.118Z,-6.90
2019-01-21T19:15:51.995Z,-6.90
2019-01-21T19:17:26.819Z,-6.90
2019-01-21T19:19:02.131Z,-7.00
2019-01-21T19:20:37.227Z,-7.00
2019-01-21T19:22:12.092Z,-7.10
2019-01-21T19:23:46.992Z,-7.10
2019-01-21T19:25:22.198Z,-7.10
2019-01-21T19:26:57.342Z,-7.10
2019-01-21T19:28:32.149Z,-7.10
2019-01-21T19:30:11.683Z,-7.10
2019-01-21T19:31:46.824Z,-7.20
2019-01-21T19:33:21.622Z,-7.20
2019-01-21T19:34:56.415Z,-7.20
2019-01-21T19:36:31.334Z,-7.20
2019-01-21T19:38:06.531Z,-7.20
2019-01-21T19:39:41.661Z,-7.20
2019-01-21T19:41:16.578Z,-7.30
2019-01-21T19:42:51.822Z,-7.30
2019-01-21T19:44:26.622Z,-7.40
2019-01-21T19:46:01.408Z,-7.40
2019-01-21T19:47:36.491Z,-7.40
2019-01-21T19:49:11.651Z,-7.30
2019-01-21T19:50:46.434Z,-7.30
2019-01-21T19:52:21.636Z,-7.30
2019-01-21T19:53:56.437Z,-7.40
2019-01-21T19:55:36.460Z,-7.40
2019-01-21T19:57:11.260Z,-7.50
2019-01-21T19:58:46.402Z,-7.50
2019-01-21T20:00:22.254Z,-7.40
2019-01-21T20:01:57.374Z,-7.30
2019-01-21T20:03:32.499Z,-7.10
2019-01-21T20:05:08.800Z,-7.10
2019-01-21T20:06:44.036Z,-7.10
2019-01-21T20:08:19.119Z,-7.20
2019-01-21T20:09:54.255Z,-7.20
2019-01-21T20:11:34.707Z,-7.20
2019-01-21T20:13:06.084Z,-7.30
2019-01-21T20:14:40.960Z,-7.30
2019-01-21T20:16:15.765Z,-7.30
2019-01-21T20:17:51.144Z,-7.30
2019-01-21T20:19:26.237Z,-7.30
2019-01-21T20:21:01.398Z,-7.30
2019-01-21T20:22:36.530Z,-7.30
2019-01-21T20:24:11.665Z,-7.20
2019-01-21T20:25:46.447Z,-7.20
2019-01-21T20:27:21.592Z,-7.20
2019-01-21T20:28:56.751Z,-7.20
2019-01-21T20:30:31.869Z,-7.20
2019-01-21T20:32:08.288Z,-7.30
2019-01-21T20:33:43.570Z,-7.30
2019-01-21T20:35:18.599Z,-7.20
2019-01-21T20:36:53.727Z,-7.20
2019-01-21T20:38:28.551Z,-7.30
2019-01-21T20:40:05.008Z,-7.20
2019-01-21T20:41:40.157Z,-7.30
2019-01-21T20:43:15.408Z,-7.30
2019-01-21T20:44:50.213Z,-7.30
2019-01-21T20:46:25.319Z,-7.40
2019-01-21T20:48:00.107Z,-7.40
2019-01-21T20:49:34.923Z,-7.40
2019-01-21T20:51:10.102Z,-7.40
2019-01-21T20:52:45.226Z,-7.30
2019-01-21T20:54:20.034Z,-7.30
2019-01-21T20:55:54.854Z,-7.30
2019-01-21T20:57:30.033Z,-7.30
2019-01-21T20:59:05.091Z,-7.30
2019-01-21T21:00:39.868Z,-7.30
2019-01-21T21:02:14.944Z,-7.30
2019-01-21T21:03:50.715Z,-7.20
2019-01-21T21:05:26.252Z,-7.20
2019-01-21T21:07:02.016Z,-7.30
2019-01-21T21:08:37.774Z,-7.20
2019-01-21T21:10:13.744Z,-7.30
2019-01-21T21:11:49.544Z,-7.30
2019-01-21T21:13:25.053Z,-7.30
2019-01-21T21:15:00.553Z,-7.30
2019-01-21T21:16:36.291Z,-7.30
2019-01-21T21:18:11.754Z,-7.30
2019-01-21T21:19:47.596Z,-7.30
2019-01-21T21:21:23.035Z,-7.40
2019-01-21T21:22:58.522Z,-7.40
2019-01-21T21:24:33.981Z,-7.40
2019-01-21T21:26:10.139Z,-7.40
2019-01-21T21:27:45.576Z,-7.20
2019-01-21T21:29:21.731Z,-7.10
2019-01-21T21:30:57.181Z,-7.10
2019-01-21T21:32:32.658Z,-7.00
2019-01-21T21:34:08.128Z,-7.00
2019-01-21T21:35:43.690Z,-6.90
2019-01-21T21:37:19.165Z,-6.90
2019-01-21T21:38:54.985Z,-6.90
2019-01-21T21:40:30.503Z,-6.80
2019-01-21T21:42:07.236Z,-6.80
2019-01-21T21:43:42.682Z,-6.90
2019-01-21T21:45:19.518Z,-6.80
2019-01-21T21:46:55.002Z,-6.80
2019-01-21T21:48:31.991Z,-6.80
2019-01-21T21:50:12.078Z,-6.80
2019-01-21T21:51:47.523Z,-6.70
2019-01-21T21:53:23.010Z,-6.70
2019-01-21T21:54:58.976Z,-6.70
2019-01-21T21:56:34.713Z,-6.80
2019-01-21T21:58:10.603Z,-6.80
2019-01-21T21:59:46.383Z,-6.80
2019-01-21T22:01:23.978Z,-6.80
2019-01-21T22:02:59.635Z,-6.80
2019-01-21T22:04:35.387Z,-6.80
2019-01-21T22:06:11.124Z,-6.70
2019-01-21T22:07:46.891Z,-6.70
2019-01-21T22:09:22.720Z,-6.70
2019-01-21T22:10:58.203Z,-6.60
2019-01-21T22:12:34.035Z,-6.60
2019-01-21T22:14:09.851Z,-6.50
2019-01-21T22:15:45.651Z,-6.60
2019-01-21T22:17:21.120Z,-6.60
2019-01-21T22:18:56.989Z,-6.60
2019-01-21T22:20:32.732Z,-6.60
2019-01-21T22:22:08.587Z,-6.60
2019-01-21T22:23:44.298Z,-6.50
2019-01-21T22:25:19.863Z,-6.50
2019-01-21T22:26:54.694Z,-6.50
2019-01-21T22:28:29.811Z,-6.40
2019-01-21T22:30:07.462Z,-6.40
2019-01-21T22:31:42.257Z,-6.40
2019-01-21T22:33:17.152Z,-6.30
2019-01-21T22:34:51.951Z,-6.20
2019-01-21T22:36:27.040Z,-6.20
2019-01-21T22:38:02.543Z,-6.20
2019-01-21T22:39:37.682Z,-6.20
2019-01-21T22:41:12.478Z,-6.30
2019-01-21T22:42:47.448Z,-6.30
2019-01-21T22:44:22.490Z,-6.30
2019-01-21T22:45:57.923Z,-6.40
2019-01-21T22:47:33.502Z,-6.40
2019-01-21T22:49:08.307Z,-6.40
2019-01-21T22:50:44.523Z,-6.40
2019-01-21T22:52:22.042Z,-6.50
2019-01-21T22:53:57.439Z,-6.60
2019-01-21T22:55:35.634Z,-6.70
2019-01-21T22:57:10.973Z,-6.90
2019-01-21T22:58:46.920Z,-6.80
2019-01-21T23:00:54.521Z,-7.00
2019-01-21T23:02:30.877Z,-7.10
2019-01-21T23:04:07.949Z,-7.20
2019-01-21T23:05:42.823Z,-7.10
2019-01-21T23:07:18.361Z,-7.10
2019-01-21T23:08:53.563Z,-7.00
2019-01-21T23:10:28.674Z,-7.00
2019-01-21T23:12:03.845Z,-7.00
2019-01-21T23:13:39.356Z,-6.90
2019-01-21T23:15:15.087Z,-6.90
2019-01-21T23:16:50.728Z,-6.90
2019-01-21T23:18:26.285Z,-6.80
2019-01-21T23:20:01.400Z,-6.90
2019-01-21T23:21:36.595Z,-6.80
2019-01-21T23:23:12.055Z,-6.90
2019-01-21T23:24:46.860Z,-6.90
2019-01-21T23:26:22.432Z,-7.00
2019-01-21T23:27:57.410Z,-6.90
2019-01-21T23:29:32.209Z,-7.00
2019-01-21T23:31:07.317Z,-7.00
2019-01-21T23:32:42.448Z,-6.90
2019-01-21T23:34:17.570Z,-7.00
2019-01-21T23:35:53.011Z,-7.20
2019-01-21T23:37:28.206Z,-7.30
2019-01-21T23:39:04.661Z,-7.30
2019-01-21T23:40:39.520Z,-7.40
2019-01-21T23:42:14.537Z,-7.50
2019-01-21T23:43:50.060Z,-7.60
2019-01-21T23:45:25.427Z,-7.60
2019-01-21T23:47:00.579Z,-7.60
2019-01-21T23:48:35.950Z,-7.50
2019-01-21T23:50:11.678Z,-7.50
2019-01-21T23:51:47.012Z,-7.50
2019-01-21T23:53:21.829Z,-7.60
2019-01-21T23:54:56.628Z,-7.50
2019-01-21T23:56:31.720Z,-7.50
2019-01-21T23:58:06.585Z,-7.50
2019-01-21T23:59:42.423Z,-7.50
